createdAt,value
2023-01-26T00:00:52.445Z,0.61
2023-01-26T00:01:52.431Z,0.61
2023-01-26T00:02:52.427Z,0.62
2023-01-26T00:03:52.509Z,0.68
2023-01-26T00:04:52.413Z,0.69
2023-01-26T00:05:52.377Z,0.69
2023-01-26T00:06:52.424Z,0.70
2023-01-26T00:07:52.354Z,0.73
2023-01-26T00:08:52.385Z,0.73
2023-01-26T00:09:52.359Z,0.75
2023-01-26T00:10:52.335Z,0.72
2023-01-26T00:11:52.311Z,0.72
2023-01-26T00:12:52.322Z,0.72
2023-01-26T00:13:52.306Z,0.72
2023-01-26T00:14:52.312Z,0.69
2023-01-26T00:15:52.285Z,0.69
2023-01-26T00:16:52.384Z,0.68
2023-01-26T00:17:52.251Z,0.65
2023-01-26T00:18:52.264Z,0.62
2023-01-26T00:19:52.243Z,0.61
2023-01-26T00:20:52.248Z,0.58
2023-01-26T00:21:52.210Z,0.57
2023-01-26T00:22:52.239Z,0.57
2023-01-26T00:23:52.277Z,0.51
2023-01-26T00:24:52.216Z,0.51
2023-01-26T00:25:52.172Z,0.55
2023-01-26T00:26:52.197Z,0.55
2023-01-26T00:27:52.160Z,0.58
2023-01-26T00:28:52.164Z,0.61
2023-01-26T00:29:52.153Z,0.62
2023-01-26T00:30:52.292Z,0.65
2023-01-26T00:31:52.117Z,0.69
2023-01-26T00:32:52.110Z,0.70
2023-01-26T00:33:52.102Z,0.73
2023-01-26T00:34:52.108Z,0.76
2023-01-26T00:35:52.067Z,0.76
2023-01-26T00:36:52.093Z,0.76
2023-01-26T00:37:52.047Z,0.76
2023-01-26T00:38:52.075Z,0.78
2023-01-26T00:39:52.052Z,0.78
2023-01-26T00:40:52.046Z,0.76
2023-01-26T00:41:52.016Z,0.73
2023-01-26T00:42:52.029Z,0.72
2023-01-26T00:43:51.991Z,0.68
2023-01-26T00:44:52.013Z,0.62
2023-01-26T00:45:51.975Z,0.60
2023-01-26T00:46:52.036Z,0.58
2023-01-26T00:47:51.953Z,0.57
2023-01-26T00:48:51.976Z,0.58
2023-01-26T00:49:51.938Z,0.57
2023-01-26T00:50:51.949Z,0.58
2023-01-26T00:51:51.920Z,0.55
2023-01-26T00:52:51.931Z,0.53
2023-01-26T00:53:51.898Z,0.53
2023-01-26T00:54:51.896Z,0.55
2023-01-26T00:55:51.870Z,0.55
2023-01-26T00:56:51.892Z,0.53
2023-01-26T00:57:51.866Z,0.50
2023-01-26T00:58:51.850Z,0.49
2023-01-26T00:59:51.825Z,0.47
2023-01-26T01:00:51.890Z,0.46
2023-01-26T01:01:51.829Z,0.46
2023-01-26T01:02:51.824Z,0.46
2023-01-26T01:03:51.782Z,0.46
2023-01-26T01:04:51.802Z,0.42
2023-01-26T01:05:51.762Z,0.42
2023-01-26T01:06:51.777Z,0.41
2023-01-26T01:07:51.776Z,0.41
2023-01-26T01:08:51.747Z,0.41
2023-01-26T01:09:51.738Z,0.41
2023-01-26T01:10:51.745Z,0.39
2023-01-26T01:11:51.709Z,0.36
2023-01-26T01:12:51.712Z,0.38
2023-01-26T01:13:51.692Z,0.44
2023-01-26T01:14:51.712Z,0.46
2023-01-26T01:15:51.717Z,0.49
2023-01-26T01:16:51.678Z,0.49
2023-01-26T01:17:51.664Z,0.49
2023-01-26T01:18:51.656Z,0.50
2023-01-26T01:19:51.626Z,0.53
2023-01-26T01:20:51.630Z,0.51
2023-01-26T01:21:51.599Z,0.51
2023-01-26T01:22:51.619Z,0.42
2023-01-26T01:23:51.641Z,0.36
2023-01-26T01:24:51.595Z,0.33
2023-01-26T01:25:51.581Z,0.36
2023-01-26T01:26:51.604Z,0.39
2023-01-26T01:27:51.544Z,0.41
2023-01-26T01:28:51.556Z,0.42
2023-01-26T01:29:51.522Z,0.44
2023-01-26T01:30:51.596Z,0.44
2023-01-26T01:31:51.575Z,0.46
2023-01-26T01:32:51.568Z,0.42
2023-01-26T01:33:51.489Z,0.38
2023-01-26T01:34:51.487Z,0.33
2023-01-26T01:35:51.456Z,0.28
2023-01-26T01:36:51.461Z,0.31
2023-01-26T01:37:51.461Z,0.28
2023-01-26T01:38:51.455Z,0.28
2023-01-26T01:39:51.414Z,0.28
2023-01-26T01:40:51.422Z,0.28
2023-01-26T01:41:51.404Z,0.29
2023-01-26T01:42:51.424Z,0.29
2023-01-26T01:43:51.400Z,0.31
2023-01-26T01:44:51.407Z,0.31
2023-01-26T01:45:51.362Z,0.32
2023-01-26T01:46:51.427Z,0.32
2023-01-26T01:47:51.358Z,0.35
2023-01-26T01:48:51.378Z,0.35
2023-01-26T01:49:51.326Z,0.33
2023-01-26T01:50:51.336Z,0.33
2023-01-26T01:51:51.308Z,0.36
2023-01-26T01:52:51.320Z,0.38
2023-01-26T01:53:51.302Z,0.39
2023-01-26T01:54:51.303Z,0.41
2023-01-26T01:55:51.285Z,0.39
2023-01-26T01:56:51.270Z,0.38
2023-01-26T01:57:51.254Z,0.35
2023-01-26T01:58:51.259Z,0.36
2023-01-26T01:59:51.250Z,0.38
2023-01-26T02:00:51.250Z,0.38
2023-01-26T02:01:51.221Z,0.33
2023-01-26T02:02:51.224Z,0.36
2023-01-26T02:03:51.205Z,0.33
2023-01-26T02:04:51.204Z,0.32
2023-01-26T02:05:51.188Z,0.29
2023-01-26T02:06:51.176Z,0.28
2023-01-26T02:07:51.136Z,0.28
2023-01-26T02:08:51.149Z,0.26
2023-01-26T02:09:51.149Z,0.26
2023-01-26T02:10:51.125Z,0.31
2023-01-26T02:11:51.105Z,0.31
2023-01-26T02:12:51.125Z,0.32
2023-01-26T02:13:51.134Z,0.33
2023-01-26T02:14:51.112Z,0.33
2023-01-26T02:15:51.083Z,0.39
2023-01-26T02:16:51.076Z,0.42
2023-01-26T02:17:51.040Z,0.46
2023-01-26T02:18:51.044Z,0.50
2023-01-26T02:19:51.020Z,0.51
2023-01-26T02:20:51.042Z,0.55
2023-01-26T02:21:51.036Z,0.53
2023-01-26T02:22:51.014Z,0.55
2023-01-26T02:23:51.071Z,0.51
2023-01-26T02:24:50.992Z,0.53
2023-01-26T02:25:50.974Z,0.55
2023-01-26T02:26:50.964Z,0.55
2023-01-26T02:27:50.985Z,0.53
2023-01-26T02:28:50.964Z,0.51
2023-01-26T02:29:50.938Z,0.50
2023-01-26T02:30:50.960Z,0.53
2023-01-26T02:31:51.044Z,0.50
2023-01-26T02:32:50.901Z,0.49
2023-01-26T02:33:50.903Z,0.49
2023-01-26T02:34:50.899Z,0.47
2023-01-26T02:35:50.911Z,0.47
2023-01-26T02:36:50.866Z,0.44
2023-01-26T02:37:57.386Z,0.41
2023-01-26T02:38:50.852Z,0.39
2023-01-26T02:39:50.849Z,0.39
2023-01-26T02:40:50.809Z,0.35
2023-01-26T02:41:50.815Z,0.35
2023-01-26T02:42:50.790Z,0.31
2023-01-26T02:43:50.818Z,0.28
2023-01-26T02:44:50.785Z,0.28
2023-01-26T02:45:50.782Z,0.29
2023-01-26T02:46:50.762Z,0.29
2023-01-26T02:47:50.773Z,0.31
2023-01-26T02:48:50.731Z,0.33
2023-01-26T02:49:50.837Z,0.35
2023-01-26T02:50:50.706Z,0.35
2023-01-26T02:51:50.716Z,0.33
2023-01-26T02:52:50.701Z,0.35
2023-01-26T02:53:50.707Z,0.33
2023-01-26T02:54:50.675Z,0.29
2023-01-26T02:55:50.689Z,0.29
2023-01-26T02:56:50.650Z,0.28
2023-01-26T02:57:50.680Z,0.28
2023-01-26T02:58:50.632Z,0.26
2023-01-26T02:59:50.655Z,0.26
2023-01-26T03:00:50.664Z,0.29
2023-01-26T03:01:50.691Z,0.31
2023-01-26T03:02:50.611Z,0.32
2023-01-26T03:03:50.613Z,0.32
2023-01-26T03:04:50.571Z,0.35
2023-01-26T03:05:50.596Z,0.36
2023-01-26T03:06:50.549Z,0.38
2023-01-26T03:07:50.558Z,0.33
2023-01-26T03:08:50.554Z,0.31
2023-01-26T03:09:50.536Z,0.28
2023-01-26T03:10:50.511Z,0.28
2023-01-26T03:11:50.530Z,0.29
2023-01-26T03:12:50.496Z,0.31
2023-01-26T03:13:50.522Z,0.31
2023-01-26T03:14:50.480Z,0.31
2023-01-26T03:15:50.488Z,0.31
2023-01-26T03:16:50.456Z,0.28
2023-01-26T03:17:50.458Z,0.28
2023-01-26T03:18:50.445Z,0.26
2023-01-26T03:19:50.452Z,0.28
2023-01-26T03:20:50.413Z,0.29
2023-01-26T03:21:50.424Z,0.28
2023-01-26T03:22:50.395Z,0.28
2023-01-26T03:23:50.448Z,0.26
2023-01-26T03:24:50.383Z,0.29
2023-01-26T03:25:50.387Z,0.26
2023-01-26T03:26:50.357Z,0.26
2023-01-26T03:27:50.372Z,0.26
2023-01-26T03:28:50.336Z,0.29
2023-01-26T03:29:50.356Z,0.26
2023-01-26T03:30:50.363Z,0.23
2023-01-26T03:31:50.336Z,0.21
2023-01-26T03:32:50.302Z,0.17
2023-01-26T03:33:50.310Z,0.15
2023-01-26T03:34:50.283Z,0.13
2023-01-26T03:35:50.279Z,0.14
2023-01-26T03:36:50.251Z,0.15
2023-01-26T03:37:50.261Z,0.15
2023-01-26T03:38:50.231Z,0.15
2023-01-26T03:39:50.263Z,0.14
2023-01-26T03:40:50.214Z,0.13
2023-01-26T03:41:50.232Z,0.13
2023-01-26T03:42:50.197Z,0.14
2023-01-26T03:43:50.221Z,0.14
2023-01-26T03:44:50.186Z,0.15
2023-01-26T03:45:50.198Z,0.17
2023-01-26T03:46:50.195Z,0.15
2023-01-26T03:47:50.160Z,0.13
2023-01-26T03:48:50.144Z,0.15
2023-01-26T03:49:50.148Z,0.14
2023-01-26T03:50:50.119Z,0.13
2023-01-26T03:51:50.132Z,0.13
2023-01-26T03:52:50.093Z,0.14
2023-01-26T03:53:50.112Z,0.14
2023-01-26T03:54:50.071Z,0.15
2023-01-26T03:55:50.106Z,0.14
2023-01-26T03:56:50.054Z,0.14
2023-01-26T03:57:50.062Z,0.13
2023-01-26T03:58:50.033Z,0.14
2023-01-26T03:59:50.048Z,0.14
2023-01-26T04:00:50.093Z,0.15
2023-01-26T04:01:50.041Z,0.13
2023-01-26T04:02:49.991Z,0.10
2023-01-26T04:03:50.012Z,0.10
2023-01-26T04:04:50.007Z,0.11
2023-01-26T04:05:50.034Z,0.14
2023-01-26T04:06:49.959Z,0.13
2023-01-26T04:07:49.978Z,0.15
2023-01-26T04:08:49.935Z,0.18
2023-01-26T04:09:49.959Z,0.18
2023-01-26T04:10:49.915Z,0.18
2023-01-26T04:11:49.965Z,0.18
2023-01-26T04:12:49.895Z,0.18
2023-01-26T04:13:49.917Z,0.18
2023-01-26T04:14:50.824Z,0.18
2023-01-26T04:15:49.879Z,0.18
2023-01-26T04:16:49.856Z,0.20
2023-01-26T04:17:49.876Z,0.20
2023-01-26T04:18:49.841Z,0.20
2023-01-26T04:19:49.856Z,0.21
2023-01-26T04:20:49.815Z,0.23
2023-01-26T04:21:49.825Z,0.23
2023-01-26T04:22:49.818Z,0.24
2023-01-26T04:23:49.855Z,0.24
2023-01-26T04:24:49.779Z,0.24
2023-01-26T04:25:49.791Z,0.23
2023-01-26T04:26:49.763Z,0.24
2023-01-26T04:27:49.809Z,0.23
2023-01-26T04:28:49.732Z,0.23
2023-01-26T04:29:49.757Z,0.24
2023-01-26T04:30:49.780Z,0.26
2023-01-26T04:31:49.797Z,0.26
2023-01-26T04:32:49.693Z,0.26
2023-01-26T04:33:49.714Z,0.24
2023-01-26T04:34:49.672Z,0.24
2023-01-26T04:35:49.710Z,0.23
2023-01-26T04:36:49.657Z,0.21
2023-01-26T04:37:49.673Z,0.23
2023-01-26T04:38:49.641Z,0.21
2023-01-26T04:39:49.642Z,0.23
2023-01-26T04:40:49.614Z,0.23
2023-01-26T04:41:49.619Z,0.23
2023-01-26T04:42:49.606Z,0.23
2023-01-26T04:43:49.632Z,0.23
2023-01-26T04:44:49.571Z,0.21
2023-01-26T04:45:49.592Z,0.21
2023-01-26T04:46:49.557Z,0.20
2023-01-26T04:47:49.558Z,0.17
2023-01-26T04:48:49.537Z,0.18
2023-01-26T04:49:49.569Z,0.18
2023-01-26T04:50:49.513Z,0.17
2023-01-26T04:51:49.530Z,0.17
2023-01-26T04:52:49.493Z,0.18
2023-01-26T04:53:49.559Z,0.20
2023-01-26T04:54:49.473Z,0.23
2023-01-26T04:55:49.492Z,0.23
2023-01-26T04:56:49.455Z,0.21
2023-01-26T04:57:49.478Z,0.20
2023-01-26T04:58:49.447Z,0.20
2023-01-26T04:59:49.454Z,0.20
2023-01-26T05:00:49.432Z,0.17
2023-01-26T05:01:49.423Z,0.15
2023-01-26T05:02:49.394Z,0.14
2023-01-26T05:03:49.453Z,0.14
2023-01-26T05:04:49.395Z,0.14
2023-01-26T05:05:49.385Z,0.13
2023-01-26T05:06:49.363Z,0.08
2023-01-26T05:07:49.361Z,0.07
2023-01-26T05:08:49.346Z,0.03
2023-01-26T05:09:49.348Z,0.00
2023-01-26T05:10:49.316Z,-0.01
2023-01-26T05:11:49.332Z,0.02
2023-01-26T05:12:49.294Z,0.00
2023-01-26T05:13:49.323Z,0.03
2023-01-26T05:14:49.287Z,0.02
2023-01-26T05:15:49.294Z,0.02
2023-01-26T05:16:49.288Z,0.02
2023-01-26T05:17:49.276Z,0.02
2023-01-26T05:18:49.246Z,0.00
2023-01-26T05:19:49.251Z,-0.03
2023-01-26T05:20:49.230Z,-0.07
2023-01-26T05:21:49.249Z,-0.05
2023-01-26T05:22:49.204Z,-0.07
2023-01-26T05:23:49.233Z,-0.07
2023-01-26T05:24:49.175Z,-0.10
2023-01-26T05:25:49.180Z,-0.10
2023-01-26T05:26:49.156Z,-0.07
2023-01-26T05:27:49.179Z,-0.04
2023-01-26T05:28:49.138Z,0.02
2023-01-26T05:29:49.144Z,0.00
2023-01-26T05:30:49.157Z,0.02
2023-01-26T05:31:49.192Z,0.00
2023-01-26T05:32:49.098Z,-0.01
2023-01-26T05:33:49.121Z,-0.01
2023-01-26T05:34:49.082Z,-0.03
2023-01-26T05:35:49.082Z,-0.05
2023-01-26T05:36:49.057Z,-0.08
2023-01-26T05:37:49.073Z,-0.08
2023-01-26T05:38:49.053Z,-0.08
2023-01-26T05:39:49.070Z,-0.07
2023-01-26T05:40:49.023Z,-0.05
2023-01-26T05:41:49.025Z,-0.04
2023-01-26T05:42:49.006Z,-0.04
2023-01-26T05:43:49.019Z,-0.03
2023-01-26T05:44:48.977Z,-0.04
2023-01-26T05:45:49.054Z,-0.01
2023-01-26T05:46:48.963Z,-0.04
2023-01-26T05:47:48.984Z,-0.07
2023-01-26T05:48:48.939Z,-0.10
2023-01-26T05:49:48.967Z,-0.08
2023-01-26T05:50:48.915Z,-0.05
2023-01-26T05:51:48.925Z,-0.03
2023-01-26T05:52:48.909Z,-0.01
2023-01-26T05:53:48.928Z,0.00
2023-01-26T05:54:48.875Z,0.00
2023-01-26T05:55:48.889Z,-0.01
2023-01-26T05:56:48.860Z,-0.01
2023-01-26T05:57:48.891Z,-0.01
2023-01-26T05:58:48.853Z,-0.01
2023-01-26T05:59:48.858Z,-0.01
2023-01-26T06:00:48.824Z,-0.01
2023-01-26T06:01:48.894Z,0.00
2023-01-26T06:02:48.843Z,0.02
2023-01-26T06:03:48.812Z,0.00
2023-01-26T06:04:48.792Z,0.04
2023-01-26T06:05:48.798Z,0.04
2023-01-26T06:06:48.780Z,0.08
2023-01-26T06:07:48.773Z,0.10
2023-01-26T06:08:48.757Z,0.10
2023-01-26T06:09:48.747Z,0.11
2023-01-26T06:10:48.732Z,0.13
2023-01-26T06:11:48.744Z,0.14
2023-01-26T06:12:48.702Z,0.15
2023-01-26T06:13:48.729Z,0.14
2023-01-26T06:14:48.688Z,0.15
2023-01-26T06:15:48.699Z,0.14
2023-01-26T06:16:48.887Z,0.13
2023-01-26T06:17:48.683Z,0.14
2023-01-26T06:18:48.657Z,0.10
2023-01-26T06:19:48.685Z,0.08
2023-01-26T06:20:48.649Z,0.08
2023-01-26T06:21:48.653Z,0.08
2023-01-26T06:22:48.625Z,0.08
2023-01-26T06:23:48.684Z,0.08
2023-01-26T06:24:48.581Z,0.07
2023-01-26T06:25:48.620Z,0.07
2023-01-26T06:26:48.573Z,0.08
2023-01-26T06:27:48.593Z,0.08
2023-01-26T06:28:48.561Z,0.08
2023-01-26T06:29:48.560Z,0.10
2023-01-26T06:30:48.618Z,0.08
2023-01-26T06:31:48.587Z,0.07
2023-01-26T06:32:48.507Z,0.07
2023-01-26T06:33:48.515Z,0.08
2023-01-26T06:34:48.492Z,0.10
2023-01-26T06:35:48.433Z,0.11
2023-01-26T06:36:48.463Z,0.14
2023-01-26T06:37:48.458Z,0.17
2023-01-26T06:38:48.423Z,0.17
2023-01-26T06:39:48.387Z,0.15
2023-01-26T06:40:48.434Z,0.14
2023-01-26T06:41:48.410Z,0.17
2023-01-26T06:42:48.423Z,0.17
2023-01-26T06:43:48.400Z,0.18
2023-01-26T06:44:48.350Z,0.14
2023-01-26T06:45:48.373Z,0.11
2023-01-26T06:46:48.347Z,0.07
2023-01-26T06:47:48.367Z,0.07
2023-01-26T06:48:48.371Z,0.13
2023-01-26T06:49:48.334Z,0.17
2023-01-26T06:50:48.319Z,0.15
2023-01-26T06:51:48.263Z,0.17
2023-01-26T06:52:48.265Z,0.21
2023-01-26T06:53:48.238Z,0.23
2023-01-26T06:54:48.242Z,0.26
2023-01-26T06:55:48.225Z,0.26
2023-01-26T06:56:48.279Z,0.24
2023-01-26T06:57:48.197Z,0.24
2023-01-26T06:58:47.198Z,0.21
2023-01-26T06:59:48.176Z,0.18
2023-01-26T07:00:48.204Z,0.18
2023-01-26T07:01:48.168Z,0.14
2023-01-26T07:02:48.194Z,0.14
2023-01-26T07:03:48.143Z,0.11
2023-01-26T07:04:48.170Z,0.10
2023-01-26T07:05:48.122Z,0.11
2023-01-26T07:06:48.146Z,0.13
2023-01-26T07:07:48.109Z,0.13
2023-01-26T07:08:48.106Z,0.14
2023-01-26T07:09:48.082Z,0.14
2023-01-26T07:10:48.083Z,0.14
2023-01-26T07:11:48.066Z,0.15
2023-01-26T07:12:48.076Z,0.14
2023-01-26T07:13:48.035Z,0.17
2023-01-26T07:14:48.061Z,0.15
2023-01-26T07:15:48.020Z,0.14
2023-01-26T07:16:48.114Z,0.11
2023-01-26T07:17:48.020Z,0.11
2023-01-26T07:18:48.021Z,0.14
2023-01-26T07:19:47.976Z,0.14
2023-01-26T07:20:47.997Z,0.13
2023-01-26T07:21:47.955Z,0.14
2023-01-26T07:22:47.982Z,0.11
2023-01-26T07:23:48.008Z,0.14
2023-01-26T07:24:47.940Z,0.15
2023-01-26T07:25:47.922Z,0.17
2023-01-26T07:26:47.928Z,0.13
2023-01-26T07:27:47.907Z,0.13
2023-01-26T07:28:47.903Z,0.11
2023-01-26T07:29:47.875Z,0.15
2023-01-26T07:30:47.932Z,0.14
2023-01-26T07:31:47.873Z,0.18
2023-01-26T07:32:47.894Z,0.20
2023-01-26T07:33:47.834Z,0.21
2023-01-26T07:34:47.841Z,0.23
2023-01-26T07:35:47.816Z,0.23
2023-01-26T07:36:47.893Z,0.26
2023-01-26T07:37:47.811Z,0.28
2023-01-26T07:38:47.824Z,0.28
2023-01-26T07:39:47.773Z,0.29
2023-01-26T07:40:47.799Z,0.31
2023-01-26T07:41:47.773Z,0.32
2023-01-26T07:42:47.779Z,0.28
2023-01-26T07:43:47.776Z,0.28
2023-01-26T07:44:47.741Z,0.24
2023-01-26T07:45:47.721Z,0.26
2023-01-26T07:46:47.791Z,0.24
2023-01-26T07:47:47.698Z,0.20
2023-01-26T07:48:47.707Z,0.17
2023-01-26T07:49:47.681Z,0.15
2023-01-26T07:50:47.709Z,0.14
2023-01-26T07:51:47.654Z,0.14
2023-01-26T07:52:47.661Z,0.15
2023-01-26T07:53:47.652Z,0.17
2023-01-26T07:54:47.655Z,0.14
2023-01-26T07:55:47.654Z,0.13
2023-01-26T07:56:47.633Z,0.13
2023-01-26T07:57:47.614Z,0.13
2023-01-26T07:58:47.624Z,0.11
2023-01-26T07:59:47.595Z,0.11
2023-01-26T08:00:47.590Z,0.11
2023-01-26T08:01:47.582Z,0.10
2023-01-26T08:02:47.578Z,0.10
2023-01-26T08:03:47.543Z,0.10
2023-01-26T08:04:47.561Z,0.10
2023-01-26T08:05:47.523Z,0.15
2023-01-26T08:06:47.521Z,0.18
2023-01-26T08:07:47.496Z,0.28
2023-01-26T08:08:47.500Z,0.31
2023-01-26T08:09:47.484Z,0.35
2023-01-26T08:10:47.481Z,0.36
2023-01-26T08:11:47.472Z,0.38
2023-01-26T08:12:47.479Z,0.41
2023-01-26T08:13:47.432Z,0.46
2023-01-26T08:14:47.511Z,0.42
2023-01-26T08:15:47.420Z,0.38
2023-01-26T08:16:47.455Z,0.36
2023-01-26T08:17:47.394Z,0.36
2023-01-26T08:18:47.433Z,0.33
2023-01-26T08:19:47.390Z,0.35
2023-01-26T08:20:47.405Z,0.35
2023-01-26T08:21:47.358Z,0.36
2023-01-26T08:22:47.373Z,0.35
2023-01-26T08:23:47.378Z,0.36
2023-01-26T08:24:47.342Z,0.39
2023-01-26T08:25:47.494Z,0.39
2023-01-26T08:26:47.327Z,0.42
2023-01-26T08:27:47.305Z,0.44
2023-01-26T08:28:47.333Z,0.46
2023-01-26T08:29:47.295Z,0.42
2023-01-26T08:30:47.328Z,0.42
2023-01-26T08:31:47.476Z,0.41
2023-01-26T08:32:47.277Z,0.38
2023-01-26T08:33:47.233Z,0.35
2023-01-26T08:34:47.250Z,0.31
2023-01-26T08:35:47.233Z,0.32
2023-01-26T08:36:47.216Z,0.32
2023-01-26T08:37:47.189Z,0.33
2023-01-26T08:38:47.204Z,0.35
2023-01-26T08:39:47.173Z,0.36
2023-01-26T08:40:47.190Z,0.38
2023-01-26T08:41:47.188Z,0.41
2023-01-26T08:42:47.153Z,0.42
2023-01-26T08:43:47.133Z,0.41
2023-01-26T08:44:47.133Z,0.41
2023-01-26T08:45:47.140Z,0.49
2023-01-26T08:46:47.138Z,0.49
2023-01-26T08:47:47.094Z,0.47
2023-01-26T08:48:47.093Z,0.47
2023-01-26T08:49:47.080Z,0.47
2023-01-26T08:50:47.079Z,0.49
2023-01-26T08:51:47.058Z,0.49
2023-01-26T08:52:47.066Z,0.46
2023-01-26T08:53:47.041Z,0.44
2023-01-26T08:54:47.045Z,0.41
2023-01-26T08:55:47.015Z,0.38
2023-01-26T08:56:47.028Z,0.33
2023-01-26T08:57:46.989Z,0.31
2023-01-26T08:58:47.036Z,0.33
2023-01-26T08:59:46.966Z,0.32
2023-01-26T09:00:47.033Z,0.38
2023-01-26T09:01:47.763Z,0.36
2023-01-26T09:02:47.099Z,0.38
2023-01-26T09:03:46.926Z,0.38
2023-01-26T09:04:46.931Z,0.44
2023-01-26T09:05:46.905Z,0.51
2023-01-26T09:06:46.910Z,0.53
2023-01-26T09:07:46.906Z,0.53
2023-01-26T09:08:46.904Z,0.55
2023-01-26T09:09:46.873Z,0.57
2023-01-26T09:10:46.878Z,0.58
2023-01-26T09:11:46.850Z,0.58
2023-01-26T09:12:46.880Z,0.57
2023-01-26T09:13:46.829Z,0.55
2023-01-26T09:14:46.834Z,0.55
2023-01-26T09:15:46.808Z,0.57
2023-01-26T09:16:46.817Z,0.55
2023-01-26T09:17:46.785Z,0.55
2023-01-26T09:18:46.802Z,0.55
2023-01-26T09:19:46.937Z,0.47
2023-01-26T09:20:46.771Z,0.42
2023-01-26T09:21:46.741Z,0.44
2023-01-26T09:22:46.768Z,0.47
2023-01-26T09:23:46.719Z,0.47
2023-01-26T09:24:46.736Z,0.47
2023-01-26T09:25:46.716Z,0.44
2023-01-26T09:26:46.706Z,0.41
2023-01-26T09:27:46.687Z,0.36
2023-01-26T09:28:46.682Z,0.31
2023-01-26T09:29:46.683Z,0.29
2023-01-26T09:30:46.735Z,0.29
2023-01-26T09:31:46.921Z,0.31
2023-01-26T09:32:46.652Z,0.33
2023-01-26T09:33:46.615Z,0.35
2023-01-26T09:34:46.625Z,0.38
2023-01-26T09:35:46.597Z,0.42
2023-01-26T09:36:46.600Z,0.46
2023-01-26T09:37:46.583Z,0.46
2023-01-26T09:38:46.587Z,0.50
2023-01-26T09:39:46.563Z,0.51
2023-01-26T09:40:46.556Z,0.57
2023-01-26T09:41:46.551Z,0.57
2023-01-26T09:42:46.557Z,0.57
2023-01-26T09:43:46.526Z,0.57
2023-01-26T09:44:46.513Z,0.53
2023-01-26T09:45:46.493Z,0.49
2023-01-26T09:46:46.512Z,0.42
2023-01-26T09:47:46.466Z,0.38
2023-01-26T09:48:46.519Z,0.38
2023-01-26T09:49:46.448Z,0.38
2023-01-26T09:50:46.474Z,0.38
2023-01-26T09:51:46.440Z,0.38
2023-01-26T09:52:46.432Z,0.42
2023-01-26T09:53:46.408Z,0.47
2023-01-26T09:54:46.416Z,0.49
2023-01-26T09:55:46.385Z,0.46
2023-01-26T09:56:46.412Z,0.38
2023-01-26T09:57:46.360Z,0.35
2023-01-26T09:58:46.378Z,0.33
2023-01-26T09:59:46.354Z,0.33
2023-01-26T10:00:46.359Z,0.33
2023-01-26T10:01:46.404Z,0.36
2023-01-26T10:02:46.344Z,0.39
2023-01-26T10:03:46.310Z,0.39
2023-01-26T10:04:46.315Z,0.39
2023-01-26T10:05:46.285Z,0.35
2023-01-26T10:06:46.288Z,0.29
2023-01-26T10:07:46.263Z,0.26
2023-01-26T10:08:46.275Z,0.29
2023-01-26T10:09:46.284Z,0.28
2023-01-26T10:10:46.264Z,0.29
2023-01-26T10:11:46.221Z,0.29
2023-01-26T10:12:46.225Z,0.32
2023-01-26T10:13:46.211Z,0.33
2023-01-26T10:14:46.225Z,0.39
2023-01-26T10:15:46.201Z,0.46
2023-01-26T10:16:46.201Z,0.47
2023-01-26T10:17:46.161Z,0.46
2023-01-26T10:18:46.183Z,0.41
2023-01-26T10:19:46.144Z,0.36
2023-01-26T10:20:46.180Z,0.38
2023-01-26T10:21:46.128Z,0.36
2023-01-26T10:22:46.155Z,0.36
2023-01-26T10:23:46.121Z,0.33
2023-01-26T10:24:46.113Z,0.33
2023-01-26T10:25:46.097Z,0.36
2023-01-26T10:26:46.098Z,0.39
2023-01-26T10:27:46.172Z,0.36
2023-01-26T10:28:46.107Z,0.38
2023-01-26T10:29:46.041Z,0.35
2023-01-26T10:30:46.219Z,0.36
2023-01-26T10:31:46.049Z,0.41
2023-01-26T10:32:46.052Z,0.44
2023-01-26T10:33:46.010Z,0.47
2023-01-26T10:34:46.019Z,0.50
2023-01-26T10:35:45.995Z,0.49
2023-01-26T10:36:46.006Z,0.46
2023-01-26T10:37:45.957Z,0.44
2023-01-26T10:38:45.991Z,0.42
2023-01-26T10:39:45.942Z,0.35
2023-01-26T10:40:45.958Z,0.35
2023-01-26T10:41:45.939Z,0.36
2023-01-26T10:42:45.937Z,0.42
2023-01-26T10:43:45.899Z,0.47
2023-01-26T10:44:45.938Z,0.49
2023-01-26T10:45:45.896Z,0.50
2023-01-26T10:46:45.908Z,0.51
2023-01-26T10:47:45.870Z,0.50
2023-01-26T10:48:45.861Z,0.51
2023-01-26T10:49:45.839Z,0.53
2023-01-26T10:50:45.855Z,0.49
2023-01-26T10:51:45.840Z,0.47
2023-01-26T10:52:45.805Z,0.46
2023-01-26T10:53:45.824Z,0.46
2023-01-26T10:54:45.784Z,0.47
2023-01-26T10:55:45.808Z,0.50
2023-01-26T10:56:45.786Z,0.50
2023-01-26T10:57:45.786Z,0.46
2023-01-26T10:58:45.752Z,0.46
2023-01-26T10:59:45.770Z,0.42
2023-01-26T11:00:45.724Z,0.38
2023-01-26T11:01:45.755Z,0.35
2023-01-26T11:02:45.734Z,0.28
2023-01-26T11:03:45.726Z,0.17
2023-01-26T11:04:45.683Z,0.13
2023-01-26T11:05:45.690Z,0.15
2023-01-26T11:06:45.664Z,0.20
2023-01-26T11:07:45.710Z,0.24
2023-01-26T11:08:45.642Z,0.32
2023-01-26T11:09:45.650Z,0.36
2023-01-26T11:10:45.623Z,0.38
2023-01-26T11:11:45.642Z,0.42
2023-01-26T11:12:45.618Z,0.46
2023-01-26T11:13:45.621Z,0.47
2023-01-26T11:14:45.585Z,0.49
2023-01-26T11:15:45.603Z,0.46
2023-01-26T11:16:45.567Z,0.36
2023-01-26T11:17:45.574Z,0.35
2023-01-26T11:18:45.547Z,0.35
2023-01-26T11:19:45.546Z,0.38
2023-01-26T11:20:45.545Z,0.39
2023-01-26T11:21:45.545Z,0.39
2023-01-26T11:22:45.502Z,0.35
2023-01-26T11:23:45.539Z,0.35
2023-01-26T11:24:45.480Z,0.31
2023-01-26T11:25:45.484Z,0.26
2023-01-26T11:26:45.474Z,0.23
2023-01-26T11:27:45.468Z,0.23
2023-01-26T11:28:45.446Z,0.15
2023-01-26T11:29:45.471Z,0.13
2023-01-26T11:30:45.432Z,0.15
2023-01-26T11:31:45.456Z,0.15
2023-01-26T11:32:45.397Z,0.17
2023-01-26T11:33:45.411Z,0.15
2023-01-26T11:34:45.378Z,0.13
2023-01-26T11:35:45.397Z,0.14
2023-01-26T11:36:45.359Z,0.15
2023-01-26T11:37:45.383Z,0.18
2023-01-26T11:38:45.349Z,0.24
2023-01-26T11:39:45.347Z,0.24
2023-01-26T11:40:45.331Z,0.24
2023-01-26T11:41:45.325Z,0.21
2023-01-26T11:42:45.298Z,0.23
2023-01-26T11:43:45.350Z,0.29
2023-01-26T11:44:45.288Z,0.31
2023-01-26T11:45:45.365Z,0.36
2023-01-26T11:46:45.255Z,0.35
2023-01-26T11:47:45.263Z,0.33
2023-01-26T11:48:45.266Z,0.29
2023-01-26T11:49:45.271Z,0.31
2023-01-26T11:50:45.233Z,0.29
2023-01-26T11:51:45.239Z,0.33
2023-01-26T11:52:45.197Z,0.36
2023-01-26T11:53:45.212Z,0.41
2023-01-26T11:54:45.193Z,0.39
2023-01-26T11:55:45.177Z,0.35
2023-01-26T11:56:45.158Z,0.35
2023-01-26T11:57:45.173Z,0.33
2023-01-26T11:58:45.136Z,0.29
2023-01-26T11:59:45.150Z,0.29
2023-01-26T12:00:45.155Z,0.31
2023-01-26T12:01:45.137Z,0.31
2023-01-26T12:02:45.116Z,0.32
2023-01-26T12:03:45.173Z,0.35
2023-01-26T12:04:45.069Z,0.35
2023-01-26T12:05:45.095Z,0.31
2023-01-26T12:06:45.059Z,0.31
2023-01-26T12:07:45.090Z,0.31
2023-01-26T12:08:45.036Z,0.28
2023-01-26T12:09:45.032Z,0.29
2023-01-26T12:10:45.017Z,0.31
2023-01-26T12:11:45.013Z,0.32
2023-01-26T12:12:44.990Z,0.31
2023-01-26T12:13:44.992Z,0.35
2023-01-26T12:14:44.970Z,0.32
2023-01-26T12:15:44.996Z,0.31
2023-01-26T12:16:44.978Z,0.36
2023-01-26T12:17:44.969Z,0.39
2023-01-26T12:18:55.857Z,0.42
2023-01-26T12:19:44.957Z,0.46
2023-01-26T12:20:44.917Z,0.50
2023-01-26T12:21:45.017Z,0.51
2023-01-26T12:22:44.886Z,0.57
2023-01-26T12:23:44.910Z,0.60
2023-01-26T12:25:16.209Z,0.51
2023-01-26T12:25:44.899Z,0.46
2023-01-26T12:26:44.854Z,0.49
2023-01-26T12:27:44.872Z,0.50
2023-01-26T12:28:44.822Z,0.55
2023-01-26T12:29:44.830Z,0.51
2023-01-26T12:30:44.888Z,0.47
2023-01-26T12:31:44.873Z,0.44
2023-01-26T12:32:44.784Z,0.47
2023-01-26T12:33:44.822Z,0.44
2023-01-26T12:34:44.770Z,0.39
2023-01-26T12:35:44.776Z,0.36
2023-01-26T12:36:44.745Z,0.39
2023-01-26T12:37:44.750Z,0.36
2023-01-26T12:38:44.733Z,0.44
2023-01-26T12:39:44.763Z,0.47
2023-01-26T12:40:44.703Z,0.50
2023-01-26T12:41:44.724Z,0.44
2023-01-26T12:42:44.680Z,0.42
2023-01-26T12:43:44.701Z,0.41
2023-01-26T12:44:44.674Z,0.41
2023-01-26T12:45:44.681Z,0.42
2023-01-26T12:46:44.635Z,0.39
2023-01-26T12:47:44.641Z,0.39
2023-01-26T12:48:44.628Z,0.42
2023-01-26T12:49:44.670Z,0.44
2023-01-26T12:50:44.599Z,0.46
2023-01-26T12:51:44.672Z,0.49
2023-01-26T12:52:44.574Z,0.51
2023-01-26T12:53:44.604Z,0.50
2023-01-26T12:54:44.567Z,0.47
2023-01-26T12:55:44.561Z,0.44
2023-01-26T12:56:44.551Z,0.39
2023-01-26T12:57:44.538Z,0.41
2023-01-26T12:58:44.512Z,0.41
2023-01-26T12:59:47.601Z,0.44
2023-01-26T13:00:44.491Z,0.47
2023-01-26T13:01:44.592Z,0.50
2023-01-26T13:02:44.570Z,0.57
2023-01-26T13:03:44.489Z,0.60
2023-01-26T13:04:44.469Z,0.62
2023-01-26T13:05:44.488Z,0.66
2023-01-26T13:06:44.461Z,0.66
2023-01-26T13:07:44.449Z,0.68
2023-01-26T13:08:44.409Z,0.66
2023-01-26T13:09:44.413Z,0.58
2023-01-26T13:10:44.386Z,0.57
2023-01-26T13:11:44.429Z,0.53
2023-01-26T13:12:44.367Z,0.51
2023-01-26T13:13:44.388Z,0.51
2023-01-26T13:14:44.351Z,0.53
2023-01-26T13:15:44.498Z,0.51
2023-01-26T13:16:44.339Z,0.53
2023-01-26T13:17:44.340Z,0.53